Time;durP1;ratioP1;P1;durP2;ratioP2;P2;SDS_P1;SDS_P2;PMS_P1;PMS_P2;Temp;Humidity;BMP_temperature;BMP_pressure;BME280_temperature;BME280_humidity;BME280_pressure;Samples;Min_cycle;Max_cycle;Signal;HPM_P1;HPM_P2
2021/01/25 00:02:03;;;;;;;6.72;3.92;;;3.20;83.90;;;;;;5106059;28;19915;-68
2021/01/25 00:04:29;;;;;;;5.70;3.35;;;3.20;84.80;;;;;;5087902;28;20043;-67
2021/01/25 00:06:54;;;;;;;;;;;3.10;85.50;;;;;;5106892;28;20039;-67
2021/01/25 00:09:20;;;;;;;6.32;3.90;;;3.00;86.90;;;;;;5106022;28;20029;-68
2021/01/25 00:11:46;;;;;;;;;;;2.90;86.60;;;;;;5093247;28;20384;-69
2021/01/25 00:14:11;;;;;;;5.95;3.67;;;2.90;88.00;;;;;;5106310;28;20297;-67
2021/01/25 00:16:37;;;;;;;;;;;2.90;88.30;;;;;;5106441;28;20023;-68
2021/01/25 00:19:03;;;;;;;6.82;3.80;;;2.80;88.70;;;;;;5109410;28;19914;-68
2021/01/25 00:21:28;;;;;;;;;;;2.80;88.70;;;;;;5110858;28;20027;-67
2021/01/25 00:23:54;;;;;;;8.30;4.10;;;2.80;88.60;;;;;;5110352;28;19908;-67
2021/01/25 00:26:19;;;;;;;;;;;2.80;88.60;;;;;;5110136;28;20026;-68
2021/01/25 00:28:45;;;;;;;6.53;3.38;;;2.80;87.20;;;;;;5119632;27;20203;-68
2021/01/25 00:31:10;;;;;;;;;;;2.80;87.70;;;;;;5131220;27;20027;-68
2021/01/25 00:33:36;;;;;;;3.50;1.63;;;2.70;88.50;;;;;;5130358;27;19915;-67
2021/01/25 00:36:02;;;;;;;;;;;2.70;88.50;;;;;;5131207;27;20416;-68
2021/01/25 00:38:27;;;;;;;2.40;0.70;;;2.70;87.70;;;;;;5130925;27;19907;-67
2021/01/25 00:40:53;;;;;;;;;;;2.70;88.00;;;;;;5130337;27;20041;-67
2021/01/25 00:43:19;;;;;;;1.08;0.50;;;2.70;87.80;;;;;;5130708;27;19915;-67
2021/01/25 00:45:44;;;;;;;;;;;2.60;87.80;;;;;;5130873;27;20027;-66
2021/01/25 00:48:10;;;;;;;1.70;0.60;;;2.70;88.00;;;;;;5130450;27;20288;-65
2021/01/25 00:50:35;;;;;;;;;;;2.60;87.90;;;;;;5130902;27;20031;-67
2021/01/25 00:53:01;;;;;;;1.00;0.30;;;2.70;88.00;;;;;;5130092;27;19952;-66
2021/01/25 00:55:26;;;;;;;;;;;2.70;88.30;;;;;;5130425;27;20023;-67
2021/01/25 00:57:52;;;;;;;1.27;0.60;;;2.60;88.40;;;;;;5129762;27;19907;-67
2021/01/25 01:00:18;;;;;;;;;;;2.60;88.60;;;;;;5130793;27;20031;-66
2021/01/25 01:02:43;;;;;;;2.25;0.43;;;2.60;89.30;;;;;;5129303;27;20696;-68
2021/01/25 01:05:09;;;;;;;;;;;2.70;88.80;;;;;;5130551;27;20551;-67
2021/01/25 01:07:35;;;;;;;0.93;0.30;;;2.60;88.80;;;;;;5129931;27;19911;-67
2021/01/25 01:10:00;;;;;;;;;;;2.60;88.80;;;;;;5130072;27;20030;-66
2021/01/25 01:12:27;;;;;;;0.90;0.35;;;2.60;88.90;;;;;;5129997;27;19960;-67
2021/01/25 01:14:52;;;;;;;0.63;0.30;;;2.60;88.90;;;;;;5129603;27;20019;-67
2021/01/25 01:17:18;;;;;;;;;;;2.60;89.00;;;;;;5130417;27;20098;-66
2021/01/25 01:19:44;;;;;;;0.40;0.20;;;2.60;88.70;;;;;;5129640;27;19912;-66
2021/01/25 01:22:10;;;;;;;;;;;2.50;88.20;;;;;;5129885;27;20102;-66
2021/01/25 01:24:36;;;;;;;1.03;0.20;;;2.50;89.10;;;;;;5129226;27;19949;-68
2021/01/25 01:27:01;;;;;;;;;;;2.50;88.90;;;;;;5130099;27;20292;-66
2021/01/25 01:29:27;;;;;;;0.50;0.20;;;2.60;89.30;;;;;;5128238;27;19946;-66
2021/01/25 01:31:54;;;;;;;0.30;0.20;;;2.60;89.10;;;;;;5111286;27;20096;-65
2021/01/25 01:34:19;;;;;;;;;;;2.60;89.30;;;;;;5129657;27;20027;-66
2021/01/25 01:36:45;;;;;;;1.30;0.35;;;2.60;89.20;;;;;;5129496;27;19903;-66
2021/01/25 01:39:10;;;;;;;;;;;2.60;88.90;;;;;;5129751;27;20088;-66
2021/01/25 01:41:40;;;;;;;1.08;0.30;;;2.60;89.10;;;;;;5128589;27;19946;-65
2021/01/25 01:44:07;;;;;;;0.85;0.30;;;2.60;89.20;;;;;;5110986;27;20019;-66
2021/01/25 01:46:34;;;;;;;2.88;0.35;;;2.60;89.30;;;;;;5128720;27;20384;-67
2021/01/25 01:49:00;;;;;;;0.80;0.32;;;2.60;89.40;;;;;;5110863;27;20053;-65
2021/01/25 01:51:26;;;;;;;1.60;0.50;;;2.60;89.20;;;;;;5129011;27;20026;-67
2021/01/25 01:53:53;;;;;;;;;;;2.60;89.30;;;;;;5129609;27;20089;-66
2021/01/25 01:56:18;;;;;;;1.85;0.45;;;2.60;89.40;;;;;;5128433;27;20002;-67
2021/01/25 01:58:44;;;;;;;;;;;2.60;89.70;;;;;;5110978;27;20583;-67
2021/01/25 02:01:10;;;;;;;0.85;0.40;;;2.60;89.70;;;;;;5129173;27;20002;-67
2021/01/25 02:03:35;;;;;;;;;;;2.50;90.10;;;;;;5129466;27;20027;-66
2021/01/25 02:06:03;;;;;;;0.85;0.30;;;2.50;90.30;;;;;;5128547;27;19930;-66
2021/01/25 02:08:30;;;;;;;0.60;0.30;;;2.50;90.40;;;;;;5110118;27;20046;-66
2021/01/25 02:10:56;;;;;;;1.30;0.40;;;2.40;90.40;;;;;;5110085;27;20122;-66
2021/01/25 02:13:23;;;;;;;1.65;0.30;;;2.50;90.50;;;;;;5128554;27;20031;-67
2021/01/25 02:15:51;;;;;;;0.73;0.30;;;2.50;90.60;;;;;;5128727;27;20574;-66
2021/01/25 02:18:17;;;;;;;0.82;0.30;;;2.40;90.70;;;;;;5110345;27;20035;-67
2021/01/25 02:20:44;;;;;;;;;;;2.40;90.90;;;;;;5129602;27;20407;-65
2021/01/25 02:23:16;;;;;;;;;;;2.40;91.00;;;;;;5110168;27;20344;-66
2021/01/25 02:25:51;;;;;;;1.45;0.40;;;2.30;91.10;;;;;;5109872;27;19907;-67
2021/01/25 02:28:17;;;;;;;1.50;0.30;;;2.30;91.30;;;;;;5128528;27;20051;-66
2021/01/25 02:30:43;;;;;;;;;;;2.30;91.40;;;;;;5129001;27;20019;-66
2021/01/25 02:33:11;;;;;;;1.33;0.50;;;2.30;91.60;;;;;;5128110;27;19918;-67
2021/01/25 02:35:37;;;;;;;1.33;0.40;;;2.20;91.70;;;;;;5128409;27;20567;-66
2021/01/25 02:38:06;;;;;;;1.35;0.38;;;2.20;91.90;;;;;;5128255;27;20023;-66
2021/01/25 02:40:33;;;;;;;0.88;0.32;;;2.20;91.90;;;;;;5127913;27;20027;-66
2021/01/25 02:42:59;;;;;;;0.60;0.30;;;2.30;91.90;;;;;;5128130;27;20038;-66
2021/01/25 02:45:24;;;;;;;;;;;2.30;91.80;;;;;;5128059;27;20450;-65
2021/01/25 02:47:52;;;;;;;0.60;0.20;;;2.30;91.80;;;;;;5127943;27;20462;-66
2021/01/25 02:50:17;;;;;;;0.68;0.30;;;2.30;91.70;;;;;;5127834;27;20031;-65
2021/01/25 02:52:43;;;;;;;;;;;2.30;91.60;;;;;;5128501;27;20488;-65
2021/01/25 02:55:09;;;;;;;0.20;0.13;;;2.30;91.70;;;;;;5127236;27;19907;-67
2021/01/25 02:57:36;;;;;;;0.60;0.30;;;2.30;91.70;;;;;;5108812;27;20028;-66
2021/01/25 03:00:05;;;;;;;0.20;0.20;;;2.40;91.50;;;;;;5127990;27;20098;-67
2021/01/25 03:02:31;;;;;;;0.40;0.20;;;2.40;91.60;;;;;;5127934;27;20123;-67
2021/01/25 03:04:59;;;;;;;;;;;2.30;91.80;;;;;;5127951;27;20114;-67
2021/01/25 03:07:25;;;;;;;0.90;0.30;;;2.40;91.80;;;;;;5128019;27;19915;-66
2021/01/25 03:09:50;;;;;;;;;;;2.40;91.80;;;;;;5108950;27;20034;-66
2021/01/25 03:12:16;;;;;;;0.30;0.10;;;2.40;91.70;;;;;;5109498;27;19915;-66
2021/01/25 03:14:42;;;;;;;;;;;2.40;91.80;;;;;;5128093;27;20487;-68
2021/01/25 03:17:08;;;;;;;2.45;0.20;;;2.30;91.90;;;;;;5127205;27;19914;-67
2021/01/25 03:19:33;;;;;;;;;;;2.30;92.00;;;;;;5128217;27;20031;-66
2021/01/25 03:21:59;;;;;;;1.20;0.22;;;2.30;92.10;;;;;;5127434;27;19974;-66
2021/01/25 03:24:24;;;;;;;;;;;2.30;92.20;;;;;;5127055;27;20031;-67
2021/01/25 03:26:50;;;;;;;0.40;0.20;;;2.20;92.30;;;;;;5108791;27;19930;-67
2021/01/25 03:29:16;;;;;;;;;;;2.20;92.40;;;;;;5109073;27;20051;-66
2021/01/25 03:31:41;;;;;;;0.38;0.20;;;2.20;92.50;;;;;;5126772;27;19913;-66
2021/01/25 03:34:07;;;;;;;;;;;2.20;92.50;;;;;;5109366;28;20038;-66
2021/01/25 03:36:34;;;;;;;1.67;0.68;;;2.20;92.60;;;;;;5127137;27;19911;-67
2021/01/25 03:38:59;;;;;;;0.80;0.40;;;2.20;92.60;;;;;;5126822;27;20456;-67
2021/01/25 03:41:25;;;;;;;;;;;2.20;92.50;;;;;;5109528;27;20131;-67
2021/01/25 03:43:51;;;;;;;3.55;0.95;;;2.20;92.50;;;;;;5126856;27;19908;-66
2021/01/25 03:46:17;;;;;;;;;;;2.10;92.50;;;;;;5127767;27;20160;-66
2021/01/25 03:48:43;;;;;;;1.42;0.30;;;2.20;92.30;;;;;;5126969;27;20002;-66
2021/01/25 03:51:08;;;;;;;;;;;2.10;92.30;;;;;;5127472;28;20097;-67
2021/01/25 03:53:34;;;;;;;0.77;0.25;;;2.10;92.30;;;;;;5126019;27;20009;-66
2021/01/25 03:55:59;;;;;;;;;;;2.10;92.60;;;;;;5127252;28;20468;-66
2021/01/25 03:58:28;;;;;;;0.52;0.20;;;2.10;92.20;;;;;;5127423;28;20664;-66
2021/01/25 04:00:54;;;;;;;1.58;0.30;;;2.10;92.00;;;;;;5127245;28;20024;-66
2021/01/25 04:03:20;;;;;;;;;;;2.20;91.70;;;;;;5108583;28;20039;-67
2021/01/25 04:05:46;;;;;;;1.20;0.40;;;2.10;91.70;;;;;;5126679;28;19903;-66
2021/01/25 04:08:11;;;;;;;;;;;2.10;91.80;;;;;;5126563;28;20071;-66
2021/01/25 04:10:37;;;;;;;0.85;0.40;;;2.10;91.80;;;;;;5127139;27;20072;-66
2021/01/25 04:13:03;;;;;;;;;;;2.10;91.80;;;;;;5127403;28;20046;-66
2021/01/25 04:15:28;;;;;;;2.30;0.73;;;2.10;91.70;;;;;;5126652;28;19914;-66
2021/01/25 04:17:54;;;;;;;;;;;2.00;91.70;;;;;;5127162;28;20102;-66
2021/01/25 04:20:19;;;;;;;1.15;0.40;;;2.00;91.70;;;;;;5126697;28;19911;-66
2021/01/25 04:22:45;;;;;;;;;;;2.10;91.40;;;;;;5126892;28;20027;-65
2021/01/25 04:25:11;;;;;;;1.60;0.50;;;2.10;91.00;;;;;;5126692;27;19907;-66
2021/01/25 04:27:37;;;;;;;1.33;0.40;;;2.10;91.10;;;;;;5126957;28;20027;-65
2021/01/25 04:30:06;;;;;;;;;;;2.20;90.70;;;;;;5127283;28;20084;-67
2021/01/25 04:32:35;;;;;;;1.70;0.57;;;2.10;90.50;;;;;;5126527;28;19907;-66
2021/01/25 04:35:08;;;;;;;3.35;1.70;;;2.00;90.90;;;;;;5126859;28;20119;-65
2021/01/25 04:37:34;;;;;;;1.30;0.60;;;1.90;91.10;;;;;;5126359;28;20116;-66
2021/01/25 04:39:59;;;;;;;;;;;2.00;91.00;;;;;;5108756;28;20053;-67
2021/01/25 04:42:26;;;;;;;2.60;0.80;;;1.90;90.90;;;;;;5126697;28;20395;-67
2021/01/25 04:44:51;;;;;;;;;;;1.90;90.70;;;;;;5127152;28;20042;-67
2021/01/25 04:47:21;;;;;;;2.10;0.82;;;1.90;90.90;;;;;;5126243;28;20403;-65
2021/01/25 04:49:49;;;;;;;3.38;1.27;;;1.90;91.00;;;;;;5126139;28;20161;-65
2021/01/25 04:52:15;;;;;;;4.57;1.45;;;1.80;90.60;;;;;;5126656;28;20126;-66
2021/01/25 04:54:41;;;;;;;4.53;1.63;;;1.80;90.60;;;;;;5126121;28;20411;-65
2021/01/25 04:57:10;;;;;;;4.65;1.85;;;1.80;90.30;;;;;;5126476;28;20064;-65
2021/01/25 04:59:36;;;;;;;3.33;1.77;;;1.80;90.10;;;;;;5126404;28;20038;-65
2021/01/25 05:02:02;;;;;;;4.57;2.30;;;1.90;89.70;;;;;;5126333;28;20034;-66
2021/01/25 05:04:27;;;;;;;;;;;1.90;89.40;;;;;;5108845;27;20031;-66
2021/01/25 05:06:53;;;;;;;4.88;2.13;;;1.90;88.10;;;;;;5129890;27;19913;-66
2021/01/25 05:09:18;;;;;;;;;;;1.90;88.50;;;;;;5129657;27;20105;-66
2021/01/25 05:11:44;;;;;;;3.10;1.80;;;1.80;87.40;;;;;;5129850;27;19914;-66
2021/01/25 05:14:09;;;;;;;;;;;1.90;86.20;;;;;;5130916;27;20038;-66
2021/01/25 05:16:35;;;;;;;5.72;2.63;;;1.90;85.50;;;;;;5129753;27;19907;-66
2021/01/25 05:19:04;;;;;;;;;;;2.00;85.30;;;;;;5130354;27;20023;-66
2021/01/25 05:21:41;;;;;;;6.70;3.17;;;2.10;84.00;;;;;;5129556;27;19911;-66
2021/01/25 05:24:08;;;;;;;4.97;2.67;;;2.00;84.80;;;;;;5129741;27;20035;-66
2021/01/25 05:26:35;;;;;;;4.43;2.58;;;2.00;85.10;;;;;;5129792;27;20031;-66
2021/01/25 05:29:01;;;;;;;5.88;3.03;;;2.00;85.10;;;;;;5099394;28;20428;-66
2021/01/25 05:31:26;;;;;;;;;;;1.90;85.10;;;;;;5109747;28;20023;-66
2021/01/25 05:33:53;;;;;;;4.88;2.50;;;1.90;85.40;;;;;;5108832;28;19926;-67
2021/01/25 05:36:20;;;;;;;6.63;3.55;;;1.90;85.50;;;;;;5108582;28;20028;-67
2021/01/25 05:38:50;;;;;;;5.22;2.78;;;1.90;84.70;;;;;;5108135;28;20409;-67
2021/01/25 05:41:16;;;;;;;5.30;2.20;;;2.00;84.00;;;;;;5108930;28;20506;-67
2021/01/25 05:43:43;;;;;;;7.75;3.08;;;1.90;84.20;;;;;;5108373;28;20031;-67
2021/01/25 05:46:10;;;;;;;5.88;2.78;;;2.00;84.10;;;;;;5108633;28;20038;-67
2021/01/25 05:48:36;;;;;;;4.88;1.85;;;1.90;83.80;;;;;;5108488;28;20031;-67
2021/01/25 05:51:15;;;;;;;;;;;1.90;83.50;;;;;;5109193;28;20023;-67
2021/01/25 05:53:46;;;;;;;5.82;2.30;;;2.00;83.40;;;;;;5107969;28;19947;-67
2021/01/25 05:56:13;;;;;;;8.85;1.92;;;2.10;82.10;;;;;;5108637;28;20031;-66
2021/01/25 05:58:39;;;;;;;3.60;1.83;;;2.10;82.20;;;;;;5090149;28;20096;-66
2021/01/25 06:01:06;;;;;;;7.38;2.13;;;2.10;81.50;;;;;;5090246;28;20490;-67
2021/01/25 06:03:37;;;;;;;5.47;3.10;;;2.10;81.80;;;;;;5108171;28;20030;-66
2021/01/25 06:06:08;;;;;;;6.90;3.67;;;2.10;81.60;;;;;;5108280;28;20450;-67
2021/01/25 06:08:52;;;;;;;3.83;1.95;;;2.10;82.50;;;;;;5107425;28;20043;-67
2021/01/25 06:11:23;;;;;;;3.83;2.03;;;2.00;82.40;;;;;;5108177;28;20027;-66
2021/01/25 06:13:51;;;;;;;4.50;2.10;;;2.00;82.30;;;;;;5108207;28;20036;-67
2021/01/25 06:16:18;;;;;;;4.30;1.75;;;2.00;81.80;;;;;;5108049;28;20384;-67
2021/01/25 06:18:46;;;;;;;6.93;2.92;;;2.00;81.90;;;;;;5108097;28;20537;-67
2021/01/25 06:21:15;;;;;;;5.30;2.13;;;2.00;80.70;;;;;;5107796;28;20030;-67
2021/01/25 06:23:43;;;;;;;6.55;2.33;;;2.00;80.60;;;;;;5089180;28;20107;-67
2021/01/25 06:26:09;;;;;;;5.47;2.83;;;2.00;80.90;;;;;;5089707;28;20051;-67
2021/01/25 06:28:35;;;;;;;4.45;2.33;;;2.00;81.60;;;;;;5115911;27;20051;-67
2021/01/25 06:31:01;;;;;;;;;;;2.00;81.00;;;;;;5128410;27;20042;-67
2021/01/25 06:33:27;;;;;;;5.50;1.98;;;2.00;81.30;;;;;;5128071;27;19958;-67
2021/01/25 06:35:52;;;;;;;;;;;2.00;81.30;;;;;;5128753;27;20100;-67
2021/01/25 06:38:20;;;;;;;5.05;2.55;;;2.10;81.00;;;;;;5127440;27;19911;-67
2021/01/25 06:40:48;;;;;;;6.85;3.38;;;2.00;81.10;;;;;;5128354;27;20038;-67
2021/01/25 06:43:16;;;;;;;5.30;2.20;;;2.00;81.70;;;;;;5128242;27;20106;-66
2021/01/25 06:45:48;;;;;;;6.55;2.85;;;2.00;82.00;;;;;;5127904;27;20051;-67
2021/01/25 06:48:17;;;;;;;7.30;2.90;;;2.00;82.00;;;;;;5128065;27;20037;-68
2021/01/25 06:50:49;;;;;;;7.63;2.97;;;2.00;82.40;;;;;;5128062;27;20080;-67
2021/01/25 06:53:15;;;;;;;6.00;2.90;;;2.00;82.40;;;;;;5127792;27;20384;-67
2021/01/25 06:55:43;;;;;;;9.73;4.05;;;2.00;82.50;;;;;;5127812;27;20023;-65
2021/01/25 06:58:12;;;;;;;7.75;3.08;;;2.00;82.40;;;;;;5109204;27;20788;-66
2021/01/25 07:00:39;;;;;;;8.27;3.42;;;2.00;82.80;;;;;;5127786;27;20034;-66
2021/01/25 07:03:06;;;;;;;5.47;2.65;;;2.00;83.00;;;;;;5109470;27;20054;-67
2021/01/25 07:05:43;;;;;;;11.27;4.13;;;2.00;83.00;;;;;;5127461;27;20016;-67
2021/01/25 07:08:23;;;;;;;12.00;5.45;;;1.90;83.10;;;;;;5127339;27;20035;-67
2021/01/25 07:11:00;;;;;;;14.90;5.80;;;1.90;83.70;;;;;;5127034;27;20434;-66
2021/01/25 07:13:30;;;;;;;12.30;5.05;;;1.90;83.10;;;;;;5127720;27;20535;-67
2021/01/25 07:15:56;;;;;;;10.07;4.22;;;2.00;83.10;;;;;;5126935;27;20847;-66
2021/01/25 07:18:23;;;;;;;;;;;2.00;83.20;;;;;;5109108;27;20057;-66
2021/01/25 07:20:54;;;;;;;17.02;6.57;;;2.00;82.30;;;;;;5127137;27;19907;-67
2021/01/25 07:23:23;;;;;;;12.23;5.45;;;2.10;81.10;;;;;;5127434;27;20445;-67
2021/01/25 07:25:59;;;;;;;7.50;3.55;;;2.10;81.10;;;;;;5127093;27;20031;-67
2021/01/25 07:28:26;;;;;;;;;;;2.10;80.40;;;;;;5119324;27;20065;-64
2021/01/25 07:30:52;;;;;;;12.02;4.68;;;2.10;80.90;;;;;;5105944;28;19914;-66
2021/01/25 07:33:18;;;;;;;8.52;3.47;;;2.10;81.00;;;;;;5107043;28;20028;-67
2021/01/25 07:35:44;;;;;;;;;;;2.10;81.00;;;;;;5107077;28;20102;-66
2021/01/25 07:38:10;;;;;;;15.40;6.03;;;2.10;80.20;;;;;;5088526;28;20022;-67
2021/01/25 07:40:35;;;;;;;;;;;2.20;80.40;;;;;;5106645;28;20038;-66
2021/01/25 07:43:03;;;;;;;13.05;5.13;;;2.20;80.40;;;;;;5106138;28;19904;-67
2021/01/25 07:45:29;;;;;;;15.57;6.47;;;2.30;79.70;;;;;;5105807;28;20027;-68
2021/01/25 07:47:55;;;;;;;;;;;2.30;79.60;;;;;;5106330;28;20040;-66
2021/01/25 07:50:20;;;;;;;10.23;4.78;;;2.30;79.50;;;;;;5106768;28;19908;-66
2021/01/25 07:53:06;;;;;;;;;;;2.30;79.60;;;;;;5105703;28;20023;-68
2021/01/25 07:55:38;;;;;;;8.23;3.28;;;2.30;80.10;;;;;;5105607;28;19904;-65
2021/01/25 07:58:11;;;;;;;7.68;3.47;;;2.30;80.90;;;;;;5106355;28;20031;-67
2021/01/25 08:00:40;;;;;;;6.65;3.10;;;2.30;82.00;;;;;;5106478;28;20102;-66
2021/01/25 08:03:29;;;;;;;6.95;2.90;;;2.30;82.90;;;;;;5105556;28;20476;-67
2021/01/25 08:05:59;;;;;;;4.20;2.42;;;2.30;83.50;;;;;;5105241;28;20044;-67
2021/01/25 08:08:26;;;;;;;4.43;2.20;;;2.20;84.20;;;;;;5105920;28;20042;-66
2021/01/25 08:10:53;;;;;;;4.95;2.53;;;2.10;84.80;;;;;;5105910;28;20422;-67
2021/01/25 08:13:22;;;;;;;4.50;2.80;;;2.10;85.40;;;;;;5087507;28;20166;-65
2021/01/25 08:16:01;;;;;;;7.40;3.50;;;2.00;86.10;;;;;;5105923;28;20032;-68
2021/01/25 08:18:59;;;;;;;5.95;2.80;;;2.00;86.60;;;;;;5105875;28;20024;-66
2021/01/25 08:21:29;;;;;;;6.85;3.50;;;2.10;86.70;;;;;;5105439;28;20044;-66
2021/01/25 08:23:58;;;;;;;7.47;3.20;;;2.10;86.50;;;;;;5105942;28;20039;-66
2021/01/25 08:26:27;;;;;;;6.53;2.97;;;2.20;86.50;;;;;;5087956;28;20111;-67
2021/01/25 08:28:58;;;;;;;7.55;2.75;;;2.30;86.10;;;;;;5105530;28;20060;-66
2021/01/25 08:31:36;;;;;;;7.05;2.40;;;2.30;85.20;;;;;;5105891;28;20020;-66
2021/01/25 08:34:18;;;;;;;4.72;2.67;;;2.50;82.20;;;;;;5105979;28;20027;-66
2021/01/25 08:36:54;;;;;;;4.93;2.63;;;2.60;80.60;;;;;;5105815;28;20027;-66
2021/01/25 08:39:39;;;;;;;3.90;2.10;;;2.60;79.40;;;;;;5108110;28;20031;-66
2021/01/25 08:42:13;;;;;;;5.10;2.70;;;2.70;79.50;;;;;;5109615;28;20024;-67
2021/01/25 08:44:45;;;;;;;7.78;2.80;;;2.70;79.20;;;;;;5109638;28;20047;-66
2021/01/25 08:47:11;;;;;;;6.90;3.60;;;2.80;79.00;;;;;;5109369;28;20074;-67
2021/01/25 08:49:41;;;;;;;;;;;2.80;78.40;;;;;;5109737;28;20055;-66
2021/01/25 08:52:29;;;;;;;5.07;3.03;;;2.90;78.60;;;;;;5109159;28;20579;-67
2021/01/25 08:55:05;;;;;;;7.95;3.30;;;2.90;79.00;;;;;;5109636;28;20097;-67
2021/01/25 08:57:36;;;;;;;6.55;3.55;;;3.00;78.50;;;;;;5109394;28;20026;-67
2021/01/25 09:00:09;;;;;;;7.85;3.65;;;2.90;78.50;;;;;;5109689;28;20403;-67
2021/01/25 09:02:34;;;;;;;9.38;3.97;;;3.00;78.90;;;;;;5109959;28;20492;-67
2021/01/25 09:05:00;;;;;;;;;;;3.10;78.60;;;;;;5109216;28;20031;-68
2021/01/25 09:07:25;;;;;;;13.65;3.50;;;3.20;77.90;;;;;;5109536;28;19977;-68
2021/01/25 09:09:51;;;;;;;;;;;3.30;78.10;;;;;;5109545;28;20061;-67
2021/01/25 09:12:18;;;;;;;8.88;3.95;;;3.40;77.00;;;;;;5109533;28;20658;-67
2021/01/25 09:14:44;;;;;;;6.30;3.60;;;3.40;77.30;;;;;;5109067;28;20031;-66
2021/01/25 09:17:10;;;;;;;;;;;3.40;77.10;;;;;;5109998;28;20133;-68
2021/01/25 09:19:37;;;;;;;5.68;3.00;;;3.50;77.20;;;;;;5089727;28;20289;-68
2021/01/25 09:22:06;;;;;;;7.63;3.53;;;3.60;77.40;;;;;;5109314;28;20039;-67
2021/01/25 09:24:32;;;;;;;7.00;3.72;;;3.70;76.60;;;;;;5109483;28;20098;-68
2021/01/25 09:26:58;;;;;;;;;;;3.80;75.90;;;;;;5109529;28;20032;-68
2021/01/25 09:29:24;;;;;;;7.55;3.50;;;3.90;75.60;;;;;;5108779;27;20396;-66
2021/01/25 09:31:49;;;;;;;9.38;3.72;;;4.00;75.20;;;;;;5109118;28;20028;-68
2021/01/25 09:34:15;;;;;;;;;;;4.20;75.20;;;;;;5109440;28;20085;-67
2021/01/25 09:36:40;;;;;;;6.43;3.63;;;4.20;74.70;;;;;;5108311;28;20439;-66
2021/01/25 09:39:06;;;;;;;;;;;4.30;75.10;;;;;;5091224;28;20392;-65
2021/01/25 09:41:32;;;;;;;4.70;2.97;;;4.40;74.40;;;;;;5108593;28;20002;-67
2021/01/25 09:43:58;;;;;;;6.50;3.65;;;4.50;73.40;;;;;;5108768;28;20051;-66
2021/01/25 09:46:23;;;;;;;;;;;4.60;72.60;;;;;;5109189;28;20078;-65
2021/01/25 09:48:49;;;;;;;5.88;3.33;;;4.60;72.20;;;;;;5108781;28;19922;-67
2021/01/25 09:51:15;;;;;;;6.32;2.90;;;4.60;73.20;;;;;;5107508;28;20023;-68
2021/01/25 09:53:41;;;;;;;6.88;3.83;;;4.70;73.60;;;;;;5108198;28;20031;-67
2021/01/25 09:56:07;;;;;;;;;;;4.90;72.70;;;;;;5108642;28;20024;-67
2021/01/25 09:58:34;;;;;;;4.80;2.75;;;5.00;72.50;;;;;;5107708;28;19922;-67
2021/01/25 10:01:00;;;;;;;8.50;3.05;;;5.20;72.30;;;;;;5090195;28;20031;-67
2021/01/25 10:03:27;;;;;;;;;;;5.40;71.40;;;;;;5108546;28;20020;-67
2021/01/25 10:05:53;;;;;;;5.63;3.08;;;5.50;69.20;;;;;;5089028;28;19908;-68
2021/01/25 10:08:19;;;;;;;;;;;5.50;69.00;;;;;;5108798;28;20051;-67
2021/01/25 10:10:44;;;;;;;4.40;2.90;;;5.70;68.20;;;;;;5108129;28;19920;-66
2021/01/25 10:13:10;;;;;;;6.97;3.50;;;5.70;67.10;;;;;;5090192;28;20815;-67
2021/01/25 10:15:35;;;;;;;;;;;5.70;66.40;;;;;;5089997;28;20062;-67
2021/01/25 10:18:04;;;;;;;6.28;3.10;;;5.80;66.90;;;;;;5108061;28;19912;-66
2021/01/25 10:20:30;;;;;;;5.72;3.13;;;5.70;66.00;;;;;;5107308;28;20035;-66
2021/01/25 10:22:55;;;;;;;;;;;5.70;65.50;;;;;;5108236;28;20028;-67
2021/01/25 10:25:22;;;;;;;6.22;3.22;;;5.60;65.60;;;;;;5107939;28;20010;-67
2021/01/25 10:27:48;;;;;;;7.50;4.90;;;5.50;67.10;;;;;;5107723;28;20031;-66
2021/01/25 10:30:14;;;;;;;;;;;5.50;67.60;;;;;;5109340;27;20529;-68
2021/01/25 10:32:40;;;;;;;7.30;4.15;;;5.50;67.10;;;;;;5110084;27;19964;-68
2021/01/25 10:35:06;;;;;;;;;;;5.50;67.00;;;;;;5128254;27;20031;-68
2021/01/25 10:37:33;;;;;;;4.90;2.97;;;5.50;66.40;;;;;;5128739;27;19904;-67
2021/01/25 10:39:58;;;;;;;5.70;3.30;;;5.50;66.90;;;;;;5128144;27;20803;-68
2021/01/25 10:42:24;;;;;;;;;;;5.60;65.50;;;;;;5128603;27;20038;-67
2021/01/25 10:44:49;;;;;;;5.25;2.72;;;5.50;65.70;;;;;;5128142;27;20019;-67
2021/01/25 10:47:18;;;;;;;6.15;4.13;;;5.50;66.50;;;;;;5128130;27;20499;-67
2021/01/25 10:49:48;;;;;;;6.25;3.70;;;5.50;66.40;;;;;;5127932;27;20031;-67
2021/01/25 10:52:15;;;;;;;8.38;4.57;;;5.40;66.30;;;;;;5128437;27;20048;-68
2021/01/25 10:54:41;;;;;;;7.43;4.18;;;5.30;64.70;;;;;;5128298;27;20110;-67
2021/01/25 10:57:07;;;;;;;;;;;5.40;65.60;;;;;;5127903;27;20594;-68
2021/01/25 10:59:34;;;;;;;6.75;3.13;;;5.50;66.90;;;;;;5108601;27;19907;-67
2021/01/25 11:02:00;;;;;;;6.28;3.20;;;5.80;63.00;;;;;;5126857;27;20038;-67
2021/01/25 11:04:25;;;;;;;;;;;5.60;63.50;;;;;;5127292;27;20023;-67
2021/01/25 11:06:51;;;;;;;6.50;3.13;;;5.70;63.50;;;;;;5125537;27;19907;-67
2021/01/25 11:09:17;;;;;;;;;;;5.70;63.60;;;;;;5127465;27;20027;-67
2021/01/25 11:11:43;;;;;;;9.65;3.70;;;5.80;64.40;;;;;;5127087;27;19914;-67
2021/01/25 11:14:09;;;;;;;7.45;3.78;;;5.90;63.80;;;;;;5109085;27;20069;-68
2021/01/25 11:16:34;;;;;;;;;;;6.00;64.80;;;;;;5128051;27;20514;-67
2021/01/25 11:19:00;;;;;;;6.55;3.33;;;6.10;62.80;;;;;;5126840;27;19907;-67
2021/01/25 11:21:25;;;;;;;;;;;6.10;62.00;;;;;;5127981;27;20026;-66
2021/01/25 11:23:51;;;;;;;8.13;4.43;;;6.20;60.40;;;;;;5126988;27;20359;-67
2021/01/25 11:26:18;;;;;;;;;;;6.10;60.60;;;;;;5127401;27;20034;-66
2021/01/25 11:28:45;;;;;;;8.98;4.35;;;6.20;61.70;;;;;;5119572;27;19919;-66
2021/01/25 11:31:10;;;;;;;9.45;4.40;;;6.10;61.00;;;;;;5087863;28;20113;-66
2021/01/25 11:33:36;;;;;;;;;;;6.10;60.60;;;;;;5106963;28;20601;-66
2021/01/25 11:36:02;;;;;;;9.13;4.57;;;5.90;61.10;;;;;;5106182;28;20680;-66
2021/01/25 11:38:27;;;;;;;;;;;5.80;61.80;;;;;;5088218;28;20122;-65
2021/01/25 11:40:53;;;;;;;6.30;3.45;;;5.70;60.80;;;;;;5106759;28;19903;-66
2021/01/25 11:43:18;;;;;;;;;;;5.70;61.30;;;;;;5107235;28;20156;-67
2021/01/25 11:45:44;;;;;;;8.65;4.53;;;5.40;61.10;;;;;;5106230;28;20019;-66
2021/01/25 11:48:10;;;;;;;;;;;5.40;61.30;;;;;;5106690;28;20118;-66
2021/01/25 11:50:35;;;;;;;6.80;2.90;;;5.40;62.60;;;;;;5106180;28;19908;-66
2021/01/25 11:53:01;;;;;;;;;;;5.40;62.70;;;;;;5107309;28;20023;-65
2021/01/25 11:55:27;;;;;;;8.57;4.57;;;5.50;61.40;;;;;;5106259;28;20380;-66
2021/01/25 11:57:52;;;;;;;;;;;5.50;62.10;;;;;;5106603;28;20103;-65
2021/01/25 12:00:19;;;;;;;7.72;2.85;;;5.60;62.90;;;;;;5106406;28;19907;-67
2021/01/25 12:02:44;;;;;;;5.78;2.72;;;5.50;61.30;;;;;;5105943;28;20123;-65
2021/01/25 12:05:11;;;;;;;;;;;5.50;62.60;;;;;;5106471;28;20115;-66
2021/01/25 12:07:37;;;;;;;5.93;3.20;;;5.40;62.90;;;;;;5105969;28;19912;-66
2021/01/25 12:10:05;;;;;;;12.25;4.68;;;5.50;62.20;;;;;;5106258;28;20408;-68
2021/01/25 12:12:30;;;;;;;6.53;3.03;;;5.40;62.50;;;;;;5105984;28;20411;-67
2021/01/25 12:14:56;;;;;;;;;;;5.40;61.70;;;;;;5109998;28;20027;-67
2021/01/25 12:17:21;;;;;;;5.82;3.08;;;5.30;61.80;;;;;;5110249;28;19930;-67
2021/01/25 12:19:47;;;;;;;7.30;3.15;;;5.20;62.20;;;;;;5109809;28;20146;-67
2021/01/25 12:22:13;;;;;;;;;;;5.30;63.40;;;;;;5110912;28;20474;-67
2021/01/25 12:24:38;;;;;;;6.32;2.90;;;5.20;62.60;;;;;;5091913;28;20010;-65
2021/01/25 12:27:05;;;;;;;7.10;3.33;;;5.20;63.80;;;;;;5109886;28;20028;-66
2021/01/25 12:29:31;;;;;;;8.93;3.38;;;5.30;62.60;;;;;;5124100;27;20142;-68
2021/01/25 12:31:56;;;;;;;;;;;5.30;62.20;;;;;;5112393;27;20613;-67
2021/01/25 12:34:26;;;;;;;6.70;3.50;;;5.30;61.90;;;;;;5130386;27;19911;-66
2021/01/25 12:36:52;;;;;;;5.68;3.50;;;5.30;62.20;;;;;;5130195;27;20023;-68
2021/01/25 12:39:18;;;;;;;5.82;3.15;;;5.20;62.60;;;;;;5130563;27;20064;-68
2021/01/25 12:41:43;;;;;;;;;;;5.20;62.80;;;;;;5130771;27;20066;-68
2021/01/25 12:44:09;;;;;;;6.07;3.17;;;5.20;62.60;;;;;;5112215;27;20291;-67
2021/01/25 12:46:34;;;;;;;7.53;3.53;;;5.20;62.40;;;;;;5111942;27;20030;-68
2021/01/25 12:49:01;;;;;;;;;;;5.30;62.30;;;;;;5130602;27;20571;-67
2021/01/25 12:51:26;;;;;;;7.35;3.97;;;5.30;62.30;;;;;;5130031;27;19904;-68
2021/01/25 12:53:52;;;;;;;;;;;5.30;62.60;;;;;;5112399;27;20038;-68
2021/01/25 12:56:17;;;;;;;8.23;3.53;;;5.30;62.50;;;;;;5130567;27;19908;-68
2021/01/25 12:58:43;;;;;;;;;;;5.40;62.00;;;;;;5111763;27;20027;-68
2021/01/25 13:01:09;;;;;;;4.13;2.22;;;5.40;61.30;;;;;;5130273;27;19921;-66
2021/01/25 13:03:35;;;;;;;6.18;2.30;;;5.30;60.90;;;;;;5129653;27;20109;-67
2021/01/25 13:06:00;;;;;;;;;;;5.40;61.50;;;;;;5130091;27;20507;-66
2021/01/25 13:08:26;;;;;;;10.57;4.70;;;5.40;61.50;;;;;;5130110;27;19923;-67
2021/01/25 13:10:52;;;;;;;3.65;2.05;;;5.40;61.80;;;;;;5130122;27;20122;-66
2021/01/25 13:13:17;;;;;;;;;;;5.50;60.10;;;;;;5130160;27;20031;-68
2021/01/25 13:15:43;;;;;;;4.50;1.98;;;5.60;59.70;;;;;;5129060;27;19911;-68
2021/01/25 13:18:09;;;;;;;8.30;3.70;;;5.50;60.30;;;;;;5129417;27;20033;-68
2021/01/25 13:20:35;;;;;;;;;;;5.50;60.00;;;;;;5130131;27;20035;-68
2021/01/25 13:23:00;;;;;;;15.32;10.32;;;5.50;60.20;;;;;;5111422;27;20367;-68